createdAt,value
2022-09-14T00:02:29.268Z,11.54
2022-09-14T00:05:13.888Z,11.49
2022-09-14T00:07:56.992Z,11.49
2022-09-14T00:10:42.035Z,11.58
2022-09-14T00:13:25.217Z,11.58
2022-09-14T00:16:14.180Z,11.55
2022-09-14T00:19:00.693Z,11.50
2022-09-14T00:21:45.290Z,11.59
2022-09-14T00:24:31.374Z,11.54
2022-09-14T00:27:14.459Z,11.52
2022-09-14T00:29:57.774Z,11.56
2022-09-14T00:32:41.135Z,11.51
2022-09-14T00:35:24.278Z,11.55
2022-09-14T00:38:09.917Z,11.46
2022-09-14T00:40:59.480Z,11.42
2022-09-14T00:44:02.677Z,11.45
2022-09-14T00:46:47.459Z,11.35
2022-09-14T00:49:34.255Z,11.44
2022-09-14T00:52:21.411Z,11.30
2022-09-14T00:55:09.467Z,11.37
2022-09-14T00:57:55.356Z,11.23
2022-09-14T01:00:38.490Z,11.35
2022-09-14T01:03:21.691Z,11.32
2022-09-14T01:06:15.652Z,11.33
2022-09-14T01:09:14.391Z,11.27
2022-09-14T01:12:13.830Z,11.23
2022-09-14T01:15:04.862Z,11.17
2022-09-14T01:17:56.546Z,11.06
2022-09-14T01:20:45.214Z,10.98
2022-09-14T01:23:37.545Z,10.89
2022-09-14T01:26:48.045Z,10.81
2022-09-14T01:29:38.957Z,10.77
2022-09-14T01:32:26.886Z,10.76
2022-09-14T01:35:17.338Z,10.72
2022-09-14T01:38:04.881Z,10.69
2022-09-14T01:40:50.780Z,10.58
2022-09-14T01:43:40.829Z,10.67
2022-09-14T01:46:28.901Z,10.62
2022-09-14T01:49:18.005Z,10.60
2022-09-14T01:52:06.471Z,10.56
2022-09-14T01:54:54.231Z,10.56
2022-09-14T01:57:42.314Z,10.59
2022-09-14T02:00:31.029Z,10.54
2022-09-14T02:03:21.465Z,10.49
2022-09-14T02:06:09.517Z,10.49
2022-09-14T02:08:54.150Z,10.50
2022-09-14T02:11:38.442Z,10.44
2022-09-14T02:14:22.411Z,10.46
2022-09-14T02:17:10.579Z,10.50
2022-09-14T02:19:59.143Z,10.46
2022-09-14T02:22:44.130Z,10.48
2022-09-14T02:25:30.204Z,10.28
2022-09-14T02:28:13.913Z,10.32
2022-09-14T02:31:14.457Z,10.28
2022-09-14T02:34:05.261Z,10.22
2022-09-14T02:36:56.352Z,10.26
2022-09-14T02:39:48.912Z,10.25
2022-09-14T02:42:43.635Z,10.27
2022-09-14T02:45:36.244Z,10.15
2022-09-14T02:48:28.766Z,10.11
2022-09-14T02:51:22.373Z,10.11
2022-09-14T02:54:13.211Z,10.08
2022-09-14T02:56:56.614Z,10.06
2022-09-14T02:59:42.720Z,10.10
2022-09-14T03:02:27.585Z,9.99
2022-09-14T03:05:10.691Z,10.01
2022-09-14T03:07:53.745Z,10.03
2022-09-14T03:10:38.545Z,10.09
2022-09-14T03:13:22.026Z,10.13
2022-09-14T03:16:17.565Z,9.97
2022-09-14T03:19:00.850Z,10.01
2022-09-14T03:21:43.911Z,9.91
2022-09-14T03:24:26.925Z,9.87
2022-09-14T03:27:11.507Z,9.88
2022-09-14T03:29:54.537Z,9.97
2022-09-14T03:32:38.383Z,10.02
2022-09-14T03:35:21.975Z,9.87
2022-09-14T03:38:05.625Z,9.94
2022-09-14T03:40:49.811Z,9.96
2022-09-14T03:43:34.947Z,9.92
2022-09-14T03:46:20.723Z,9.95
2022-09-14T03:49:03.911Z,9.96
2022-09-14T03:51:49.904Z,9.97
2022-09-14T03:54:34.008Z,9.92
2022-09-14T03:57:17.142Z,9.89
2022-09-14T04:00:01.639Z,9.90
2022-09-14T04:02:45.594Z,9.85
2022-09-14T04:05:28.645Z,9.77
2022-09-14T04:08:11.847Z,9.80
2022-09-14T04:10:54.961Z,9.87
2022-09-14T04:13:38.978Z,9.94
2022-09-14T04:16:25.981Z,9.87
2022-09-14T04:19:11.864Z,9.79
2022-09-14T04:21:57.312Z,9.89
2022-09-14T04:24:47.036Z,9.89
2022-09-14T04:27:59.000Z,10.01
2022-09-14T04:31:44.370Z,10.09
2022-09-14T04:34:42.674Z,10.14
2022-09-14T04:37:25.870Z,10.15
2022-09-14T04:40:09.794Z,10.17
2022-09-14T04:42:52.955Z,10.19
2022-09-14T04:45:37.143Z,10.34
2022-09-14T04:48:21.403Z,10.48
2022-09-14T04:51:07.410Z,10.51
2022-09-14T04:53:56.378Z,10.56
2022-09-14T04:56:39.662Z,10.72
2022-09-14T04:59:22.728Z,10.78
2022-09-14T05:02:05.844Z,10.81
2022-09-14T05:04:48.945Z,10.88
2022-09-14T05:07:33.438Z,11.01
2022-09-14T05:10:17.125Z,11.13
2022-09-14T05:13:00.707Z,11.29
2022-09-14T05:15:43.814Z,11.35
2022-09-14T05:18:26.854Z,11.51
2022-09-14T05:21:11.911Z,11.59
2022-09-14T05:23:57.382Z,11.64
2022-09-14T05:26:42.791Z,11.68
2022-09-14T05:29:25.885Z,11.78
2022-09-14T05:32:09.691Z,11.91
2022-09-14T05:34:52.696Z,12.07
2022-09-14T05:37:35.780Z,12.03
2022-09-14T05:40:20.322Z,12.12
2022-09-14T05:43:03.392Z,12.39
2022-09-14T05:45:46.487Z,12.32
2022-09-14T05:48:32.151Z,12.51
2022-09-14T05:51:17.173Z,12.66
2022-09-14T05:54:01.018Z,12.85
2022-09-14T05:56:45.453Z,13.04
2022-09-14T05:59:31.691Z,13.54
2022-09-14T06:02:18.011Z,14.25
2022-09-14T06:05:01.665Z,15.91
2022-09-14T06:07:45.453Z,18.47
2022-09-14T06:10:28.904Z,20.64
2022-09-14T06:13:13.422Z,24.11
2022-09-14T06:15:56.534Z,26.51
2022-09-14T06:18:41.163Z,27.92
2022-09-14T06:21:25.047Z,29.43
2022-09-14T06:24:08.255Z,30.02
2022-09-14T06:26:51.350Z,31.71
2022-09-14T06:29:35.824Z,33.21
2022-09-14T06:32:19.009Z,33.01
2022-09-14T06:35:03.715Z,32.34
2022-09-14T06:37:46.901Z,35.02
2022-09-14T06:40:31.612Z,36.03
2022-09-14T06:43:14.725Z,35.85
2022-09-14T06:46:00.889Z,36.01
2022-09-14T06:48:46.074Z,33.83
2022-09-14T06:51:32.258Z,34.30
2022-09-14T06:54:16.912Z,35.44
2022-09-14T06:57:00.050Z,34.42
2022-09-14T06:59:43.082Z,32.33
2022-09-14T07:02:28.924Z,33.37
2022-09-14T07:05:12.079Z,31.69
2022-09-14T07:07:55.710Z,34.58
2022-09-14T07:10:38.800Z,35.94
2022-09-14T07:13:21.910Z,33.92
2022-09-14T07:16:05.866Z,32.84
2022-09-14T07:18:54.558Z,34.61
2022-09-14T07:21:37.658Z,38.62
2022-09-14T07:24:20.895Z,36.83
2022-09-14T07:27:04.008Z,38.73
2022-09-14T07:29:47.475Z,36.68
2022-09-14T07:32:31.043Z,39.53
2022-09-14T07:35:15.762Z,41.75
2022-09-14T07:37:59.004Z,43.02
2022-09-14T07:40:42.076Z,40.27
2022-09-14T07:43:25.248Z,39.91
2022-09-14T07:46:08.651Z,39.91
2022-09-14T07:48:56.650Z,39.69
2022-09-14T07:51:41.358Z,39.82
2022-09-14T07:54:24.537Z,40.68
2022-09-14T07:57:07.678Z,38.33
2022-09-14T07:59:51.959Z,41.29
2022-09-14T08:02:35.475Z,41.89
2022-09-14T08:05:19.766Z,42.54
2022-09-14T08:08:04.655Z,42.92
2022-09-14T08:10:47.938Z,44.97
2022-09-14T08:13:31.040Z,46.81
2022-09-14T08:16:14.829Z,44.31
2022-09-14T08:18:59.993Z,41.42
2022-09-14T08:21:46.823Z,45.80
2022-09-14T08:24:32.393Z,46.52
2022-09-14T08:27:17.294Z,46.71
2022-09-14T08:30:06.393Z,49.08
2022-09-14T08:32:49.478Z,49.25
2022-09-14T08:35:56.433Z,49.55
2022-09-14T08:38:36.720Z,47.93
2022-09-14T08:41:30.535Z,48.24
2022-09-14T08:44:19.733Z,47.76
2022-09-14T08:47:07.357Z,44.15
2022-09-14T08:49:55.684Z,45.06
2022-09-14T08:52:42.580Z,42.47
2022-09-14T08:55:35.267Z,43.63
2022-09-14T08:58:29.335Z,48.34
2022-09-14T09:01:24.731Z,50.81
2022-09-14T09:04:25.182Z,47.99
2022-09-14T09:07:15.364Z,49.55
2022-09-14T09:14:18.243Z,48.20
2022-09-14T09:17:06.186Z,49.39
2022-09-14T09:19:57.888Z,50.63
2022-09-14T09:22:44.694Z,50.89
2022-09-14T09:25:36.890Z,53.98
2022-09-14T09:28:21.687Z,47.51
2022-09-14T09:31:13.981Z,49.23
2022-09-14T09:34:08.375Z,46.42
2022-09-14T09:36:52.082Z,49.16
2022-09-14T09:39:36.658Z,48.79
2022-09-14T09:42:24.694Z,47.55
2022-09-14T09:45:09.165Z,48.40
2022-09-14T09:47:54.069Z,47.93
2022-09-14T09:50:37.449Z,47.51
2022-09-14T09:53:24.408Z,46.71
2022-09-14T09:56:08.701Z,47.51
2022-09-14T09:58:52.854Z,41.70
2022-09-14T10:01:37.891Z,45.92
2022-09-14T10:04:24.779Z,51.44
2022-09-14T10:07:21.252Z,49.17
2022-09-14T10:10:08.714Z,52.08
2022-09-14T10:12:55.858Z,52.34
2022-09-14T10:15:41.035Z,53.41
2022-09-14T10:18:26.472Z,54.15
2022-09-14T10:21:11.872Z,55.70
2022-09-14T10:24:26.505Z,55.45
2022-09-14T10:27:37.152Z,56.23
2022-09-14T10:30:23.973Z,54.71
2022-09-14T10:33:19.001Z,55.34
2022-09-14T10:36:11.856Z,56.78
2022-09-14T10:38:59.826Z,56.37
2022-09-14T10:41:48.870Z,54.54
2022-09-14T10:44:47.298Z,53.71
2022-09-14T10:47:57.820Z,54.76
2022-09-14T10:50:58.361Z,53.21
2022-09-14T10:54:10.319Z,49.48
2022-09-14T10:57:22.694Z,46.61
2022-09-14T11:00:15.945Z,49.77
2022-09-14T11:03:42.836Z,52.21
2022-09-14T11:07:05.676Z,53.71
2022-09-14T11:10:33.792Z,47.64
2022-09-14T11:13:43.353Z,45.52
2022-09-14T11:16:51.193Z,44.88
2022-09-14T11:19:43.153Z,46.71
2022-09-14T11:22:38.156Z,42.28
2022-09-14T11:25:29.222Z,37.71
2022-09-14T11:28:18.392Z,35.49
2022-09-14T11:31:07.609Z,34.27
2022-09-14T11:34:01.111Z,33.30
2022-09-14T11:36:49.639Z,32.15
2022-09-14T11:39:39.228Z,31.35
2022-09-14T11:42:28.185Z,30.32
2022-09-14T11:45:18.916Z,28.83
2022-09-14T11:48:41.306Z,28.05
2022-09-14T11:51:23.164Z,28.23
2022-09-14T11:54:17.025Z,27.34
2022-09-14T11:57:05.145Z,27.62
2022-09-14T11:59:53.202Z,27.39
2022-09-14T12:02:49.442Z,27.60
2022-09-14T12:05:37.893Z,27.85
2022-09-14T12:08:41.612Z,27.63
2022-09-14T12:11:34.261Z,27.52
2022-09-14T12:14:32.947Z,27.68
2022-09-14T12:17:41.094Z,27.53
2022-09-14T12:20:43.582Z,27.53
2022-09-14T12:23:29.005Z,27.62
2022-09-14T12:26:39.860Z,27.53
2022-09-14T12:29:33.443Z,27.47
2022-09-14T12:32:42.314Z,27.42
2022-09-14T12:35:47.810Z,27.41
2022-09-14T12:39:08.511Z,27.46
2022-09-14T12:42:28.151Z,27.11
2022-09-14T12:45:48.834Z,26.94
2022-09-14T12:49:03.365Z,27.08
2022-09-14T12:51:50.059Z,27.09
2022-09-14T12:54:51.105Z,27.10
2022-09-14T12:57:47.368Z,27.09
2022-09-14T13:00:39.668Z,27.20
2022-09-14T13:03:51.002Z,27.20
2022-09-14T13:06:44.077Z,27.15
2022-09-14T13:09:30.842Z,27.00
2022-09-14T13:12:16.650Z,26.99
2022-09-14T13:15:02.142Z,27.16
2022-09-14T13:17:57.980Z,27.10
2022-09-14T13:20:41.277Z,26.78
2022-09-14T13:23:34.079Z,26.85
2022-09-14T13:26:20.836Z,26.85
2022-09-14T13:29:04.143Z,26.99
2022-09-14T13:31:47.923Z,26.92
2022-09-14T13:34:37.740Z,26.84
2022-09-14T13:37:23.314Z,26.90
2022-09-14T13:40:09.851Z,26.94
2022-09-14T13:42:54.164Z,26.86
2022-09-14T13:45:38.947Z,26.92
2022-09-14T13:48:23.437Z,26.83
2022-09-14T13:51:08.374Z,26.74
2022-09-14T13:53:53.600Z,26.55
2022-09-14T13:56:39.193Z,26.57
2022-09-14T13:59:24.477Z,26.55
2022-09-14T14:02:15.370Z,26.48
2022-09-14T14:04:59.772Z,26.56
2022-09-14T14:07:48.187Z,26.50
2022-09-14T14:10:37.552Z,26.45
2022-09-14T14:13:28.554Z,26.43
2022-09-14T14:16:19.008Z,26.37
2022-09-14T14:19:02.912Z,26.40
2022-09-14T14:21:47.393Z,26.45
2022-09-14T14:24:33.919Z,26.41
2022-09-14T14:27:29.386Z,26.46
2022-09-14T14:30:17.847Z,26.40
2022-09-14T14:33:01.899Z,26.30
2022-09-14T14:35:44.960Z,26.21
2022-09-14T14:38:27.983Z,26.23
2022-09-14T14:41:18.612Z,26.17
2022-09-14T14:44:02.308Z,26.10
2022-09-14T14:46:46.947Z,26.13
2022-09-14T14:49:29.936Z,26.07
2022-09-14T14:52:12.986Z,26.08
2022-09-14T14:54:56.316Z,26.12
2022-09-14T14:57:39.941Z,26.08
2022-09-14T15:00:24.907Z,26.08
2022-09-14T15:03:09.335Z,25.96
2022-09-14T15:05:52.472Z,25.93
2022-09-14T15:08:35.514Z,25.88
2022-09-14T15:11:19.195Z,25.84
2022-09-14T15:14:02.231Z,25.80
2022-09-14T15:16:46.003Z,25.72
2022-09-14T15:19:30.568Z,25.72
2022-09-14T15:22:14.655Z,25.56
2022-09-14T15:24:57.725Z,25.44
2022-09-14T15:27:40.960Z,25.38
2022-09-14T15:30:24.346Z,25.33
2022-09-14T15:33:07.562Z,25.28
2022-09-14T15:35:57.312Z,25.29
2022-09-14T15:38:40.707Z,25.33
2022-09-14T15:41:23.821Z,25.36
2022-09-14T15:44:07.814Z,25.40
2022-09-14T15:46:53.327Z,25.32
2022-09-14T15:49:37.010Z,25.18
2022-09-14T15:52:21.584Z,25.14
2022-09-14T15:55:05.694Z,25.05
2022-09-14T15:57:49.076Z,24.94
2022-09-14T16:00:32.386Z,24.84
2022-09-14T16:03:15.572Z,24.73
2022-09-14T16:06:01.530Z,24.64
2022-09-14T16:08:48.368Z,24.57
2022-09-14T16:11:31.766Z,24.56
2022-09-14T16:14:15.151Z,24.44
2022-09-14T16:16:59.928Z,24.36
2022-09-14T16:19:43.205Z,24.22
2022-09-14T16:22:26.343Z,24.17
2022-09-14T16:25:10.789Z,23.91
2022-09-14T16:27:54.259Z,23.73
2022-09-14T16:30:37.357Z,23.50
2022-09-14T16:33:20.381Z,23.34
2022-09-14T16:36:05.142Z,23.18
2022-09-14T16:38:48.259Z,23.10
2022-09-14T16:41:33.457Z,23.03
2022-09-14T16:44:21.719Z,22.87
2022-09-14T16:47:04.841Z,22.74
2022-09-14T16:49:49.050Z,22.61
2022-09-14T16:52:35.881Z,22.58
2022-09-14T16:55:19.014Z,22.48
2022-09-14T16:58:03.423Z,22.37
2022-09-14T17:00:46.527Z,22.26
2022-09-14T17:03:31.709Z,22.14
2022-09-14T17:06:16.515Z,22.11
2022-09-14T17:09:01.529Z,21.99
2022-09-14T17:11:45.946Z,21.91
2022-09-14T17:14:33.588Z,21.86
2022-09-14T17:17:16.696Z,21.83
2022-09-14T17:19:59.815Z,21.86
2022-09-14T17:22:42.879Z,21.75
2022-09-14T17:25:26.038Z,21.77
2022-09-14T17:28:10.222Z,21.63
2022-09-14T17:31:01.418Z,21.61
2022-09-14T17:33:44.749Z,21.55
2022-09-14T17:36:28.801Z,21.47
2022-09-14T17:39:12.646Z,21.41
2022-09-14T17:41:55.985Z,21.31
2022-09-14T17:44:41.029Z,21.21
2022-09-14T17:47:26.487Z,21.21
2022-09-14T17:50:09.963Z,21.15
2022-09-14T17:52:53.116Z,21.02
2022-09-14T17:55:38.693Z,20.97
2022-09-14T17:58:21.847Z,21.00
2022-09-14T18:01:09.922Z,21.20
2022-09-14T18:03:56.829Z,21.07
2022-09-14T18:06:42.493Z,21.07
2022-09-14T18:09:25.574Z,21.09
2022-09-14T18:14:53.707Z,21.09
2022-09-14T18:17:39.552Z,20.93
2022-09-14T18:20:26.917Z,20.90
2022-09-14T18:23:12.652Z,20.82
2022-09-14T18:25:58.635Z,20.95
2022-09-14T18:28:41.951Z,20.84
2022-09-14T18:31:29.036Z,20.81
2022-09-14T18:34:17.131Z,20.75
2022-09-14T18:37:01.552Z,20.68
2022-09-14T18:39:44.985Z,20.63
2022-09-14T18:42:28.270Z,20.59
2022-09-14T18:45:12.067Z,20.55
2022-09-14T18:47:55.422Z,20.46
2022-09-14T18:50:39.463Z,20.41
2022-09-14T18:53:23.921Z,20.22
2022-09-14T18:56:09.064Z,20.19
2022-09-14T18:58:52.356Z,20.08
2022-09-14T19:01:36.922Z,20.03
2022-09-14T19:04:20.121Z,20.01
2022-09-14T19:07:03.693Z,19.85
2022-09-14T19:09:48.551Z,19.68
2022-09-14T19:12:31.905Z,19.60
2022-09-14T19:15:15.106Z,19.48
2022-09-14T19:17:58.599Z,19.50
2022-09-14T19:21:05.352Z,19.52
2022-09-14T19:23:48.859Z,19.48
2022-09-14T19:26:35.456Z,19.42
2022-09-14T19:29:21.200Z,19.35
2022-09-14T19:32:04.771Z,19.33
2022-09-14T19:34:47.945Z,19.27
2022-09-14T19:37:31.448Z,19.22
2022-09-14T19:40:14.527Z,19.13
2022-09-14T19:42:59.056Z,19.13
2022-09-14T19:45:42.175Z,19.08
2022-09-14T19:48:27.111Z,19.02
2022-09-14T19:51:13.117Z,19.02
2022-09-14T19:53:57.845Z,18.90
2022-09-14T19:56:41.947Z,18.80
2022-09-14T19:59:26.838Z,18.84
2022-09-14T20:02:12.091Z,18.81
2022-09-14T20:04:55.451Z,18.80
2022-09-14T20:07:38.577Z,18.79
2022-09-14T20:10:23.309Z,18.70
2022-09-14T20:13:06.377Z,18.62
2022-09-14T20:15:51.199Z,18.61
2022-09-14T20:18:34.311Z,18.69
2022-09-14T20:21:21.031Z,18.65
2022-09-14T20:24:15.724Z,18.55
2022-09-14T20:27:02.187Z,18.51
2022-09-14T20:29:45.323Z,18.55
2022-09-14T20:32:30.200Z,18.49
2022-09-14T20:35:13.283Z,18.48
2022-09-14T20:37:56.399Z,18.45
2022-09-14T20:40:39.467Z,18.54
2022-09-14T20:43:22.629Z,18.61
2022-09-14T20:46:07.844Z,18.44
2022-09-14T20:48:52.942Z,18.29
2022-09-14T20:51:37.283Z,18.21
2022-09-14T20:54:21.045Z,18.08
2022-09-14T20:57:04.726Z,18.01
2022-09-14T20:59:47.935Z,17.95
2022-09-14T21:02:32.624Z,17.66
2022-09-14T21:05:19.282Z,17.63
2022-09-14T21:08:03.236Z,17.64
2022-09-14T21:10:46.730Z,17.63
2022-09-14T21:13:30.321Z,17.55
2022-09-14T21:16:15.925Z,17.57
2022-09-14T21:19:01.793Z,17.52
2022-09-14T21:21:47.158Z,17.55
2022-09-14T21:24:31.158Z,17.51
2022-09-14T21:27:14.442Z,17.45
2022-09-14T21:29:57.487Z,17.46
2022-09-14T21:32:40.528Z,17.44
2022-09-14T21:35:23.580Z,17.36
2022-09-14T21:38:07.974Z,17.39
2022-09-14T21:40:51.004Z,17.29
2022-09-14T21:43:36.289Z,17.28
2022-09-14T21:46:19.554Z,17.21
2022-09-14T21:49:02.622Z,16.99
2022-09-14T21:51:46.929Z,17.04
2022-09-14T21:54:31.535Z,17.04
2022-09-14T21:57:14.543Z,17.04
2022-09-14T21:59:57.542Z,16.98
2022-09-14T22:02:40.925Z,17.02
2022-09-14T22:05:24.384Z,17.06
2022-09-14T22:08:07.414Z,17.04
2022-09-14T22:10:54.225Z,16.99
2022-09-14T22:13:37.479Z,17.02
2022-09-14T22:16:20.613Z,16.99
2022-09-14T22:19:06.958Z,16.94
2022-09-14T22:21:51.022Z,16.89
2022-09-14T22:24:38.274Z,16.93
2022-09-14T22:27:23.164Z,16.82
2022-09-14T22:30:07.135Z,16.79
2022-09-14T22:32:50.390Z,16.63
2022-09-14T22:35:33.421Z,16.58
2022-09-14T22:38:16.719Z,16.61
2022-09-14T22:41:01.110Z,16.55
2022-09-14T22:43:46.423Z,16.51
2022-09-14T22:46:29.560Z,16.50
2022-09-14T22:49:13.190Z,16.48
2022-09-14T22:51:56.272Z,16.44
2022-09-14T22:54:39.356Z,16.46
2022-09-14T22:57:24.122Z,16.43
2022-09-14T23:00:13.331Z,16.28
2022-09-14T23:02:56.563Z,16.20
2022-09-14T23:05:40.677Z,16.20
2022-09-14T23:08:23.953Z,16.20
2022-09-14T23:11:10.792Z,16.17
2022-09-14T23:13:54.361Z,16.21
2022-09-14T23:16:39.126Z,16.25
2022-09-14T23:19:22.284Z,16.01
2022-09-14T23:22:06.467Z,16.01
2022-09-14T23:24:49.448Z,16.01
2022-09-14T23:27:32.521Z,15.90
2022-09-14T23:30:15.661Z,15.87
2022-09-14T23:33:00.329Z,15.86
2022-09-14T23:35:48.509Z,15.83
2022-09-14T23:38:31.620Z,15.87
2022-09-14T23:41:14.954Z,15.83
2022-09-14T23:43:58.059Z,15.83
2022-09-14T23:46:41.256Z,15.86
2022-09-14T23:49:25.862Z,15.86
2022-09-14T23:52:08.833Z,15.93
2022-09-14T23:54:51.894Z,15.84
2022-09-14T23:57:34.911Z,15.79
